sensor_id;sensor_type;location;lat;lon;timestamp;temperature;humidity
11083;DHT22;5595;50.186;8.468;2022-11-15T00:02:14;9.70;99.90
11083;DHT22;5595;50.186;8.468;2022-11-15T00:04:41;9.80;99.90
11083;DHT22;5595;50.186;8.468;2022-11-15T00:07:07;9.80;99.90
11083;DHT22;5595;50.186;8.468;2022-11-15T00:09:34;9.80;99.90
11083;DHT22;5595;50.186;8.468;2022-11-15T00:12:01;9.80;99.90
11083;DHT22;5595;50.186;8.468;2022-11-15T00:14:28;9.80;99.90
11083;DHT22;5595;50.186;8.468;2022-11-15T00:16:55;9.80;99.90
11083;DHT22;5595;50.186;8.468;2022-11-15T00:19:23;9.80;99.90
11083;DHT22;5595;50.186;8.468;2022-11-15T00:21:50;9.80;99.90
11083;DHT22;5595;50.186;8.468;2022-11-15T00:24:17;9.90;99.90
11083;DHT22;5595;50.186;8.468;2022-11-15T00:26:44;9.90;99.90
11083;DHT22;5595;50.186;8.468;2022-11-15T00:29:11;9.90;99.90
11083;DHT22;5595;50.186;8.468;2022-11-15T00:31:38;9.90;99.90
11083;DHT22;5595;50.186;8.468;2022-11-15T00:34:05;9.90;99.90
11083;DHT22;5595;50.186;8.468;2022-11-15T00:36:34;10.00;99.90
11083;DHT22;5595;50.186;8.468;2022-11-15T00:39:12;9.90;99.90
11083;DHT22;5595;50.186;8.468;2022-11-15T00:41:39;9.90;99.90
11083;DHT22;5595;50.186;8.468;2022-11-15T00:44:06;9.90;99.90
11083;DHT22;5595;50.186;8.468;2022-11-15T00:46:33;9.90;99.90
11083;DHT22;5595;50.186;8.468;2022-11-15T00:49:00;9.80;99.90
11083;DHT22;5595;50.186;8.468;2022-11-15T00:51:26;9.90;99.90
11083;DHT22;5595;50.186;8.468;2022-11-15T00:53:55;9.80;99.90
11083;DHT22;5595;50.186;8.468;2022-11-15T00:56:22;9.80;99.90
11083;DHT22;5595;50.186;8.468;2022-11-15T00:58:49;9.80;99.90
11083;DHT22;5595;50.186;8.468;2022-11-15T01:01:16;9.70;99.90
11083;DHT22;5595;50.186;8.468;2022-11-15T01:03:43;9.70;99.90
11083;DHT22;5595;50.186;8.468;2022-11-15T01:06:10;9.70;99.90
11083;DHT22;5595;50.186;8.468;2022-11-15T01:08:38;9.70;99.90
11083;DHT22;5595;50.186;8.468;2022-11-15T01:11:08;9.60;99.90
11083;DHT22;5595;50.186;8.468;2022-11-15T01:13:36;9.50;99.90
11083;DHT22;5595;50.186;8.468;2022-11-15T01:16:08;9.50;99.90
11083;DHT22;5595;50.186;8.468;2022-11-15T01:18:36;9.50;99.90
11083;DHT22;5595;50.186;8.468;2022-11-15T01:21:07;9.50;99.90
11083;DHT22;5595;50.186;8.468;2022-11-15T01:23:35;9.50;99.90
11083;DHT22;5595;50.186;8.468;2022-11-15T01:26:03;9.50;99.90
11083;DHT22;5595;50.186;8.468;2022-11-15T01:28:32;9.50;99.90
11083;DHT22;5595;50.186;8.468;2022-11-15T01:31:00;9.60;99.90
11083;DHT22;5595;50.186;8.468;2022-11-15T01:33:28;9.60;99.90
11083;DHT22;5595;50.186;8.468;2022-11-15T01:35:56;9.60;99.90
11083;DHT22;5595;50.186;8.468;2022-11-15T01:38:23;9.60;99.90
11083;DHT22;5595;50.186;8.468;2022-11-15T01:40:50;9.60;99.90
11083;DHT22;5595;50.186;8.468;2022-11-15T01:43:25;9.70;99.90
11083;DHT22;5595;50.186;8.468;2022-11-15T01:45:56;9.70;99.90
11083;DHT22;5595;50.186;8.468;2022-11-15T01:48:28;9.80;99.90
11083;DHT22;5595;50.186;8.468;2022-11-15T01:50:56;9.90;99.90
11083;DHT22;5595;50.186;8.468;2022-11-15T01:53:25;9.90;99.90
11083;DHT22;5595;50.186;8.468;2022-11-15T01:55:52;9.90;99.90
11083;DHT22;5595;50.186;8.468;2022-11-15T01:58:20;10.00;99.90
11083;DHT22;5595;50.186;8.468;2022-11-15T02:00:47;10.00;99.90
11083;DHT22;5595;50.186;8.468;2022-11-15T02:03:16;10.00;99.90
11083;DHT22;5595;50.186;8.468;2022-11-15T02:05:44;10.00;99.90
11083;DHT22;5595;50.186;8.468;2022-11-15T02:08:11;10.10;99.90
11083;DHT22;5595;50.186;8.468;2022-11-15T02:10:45;10.10;99.90
11083;DHT22;5595;50.186;8.468;2022-11-15T02:13:12;10.10;99.90
11083;DHT22;5595;50.186;8.468;2022-11-15T02:15:45;10.10;99.90
11083;DHT22;5595;50.186;8.468;2022-11-15T02:18:22;10.10;99.90
11083;DHT22;5595;50.186;8.468;2022-11-15T02:20:56;10.10;99.90
11083;DHT22;5595;50.186;8.468;2022-11-15T02:23:57;10.10;99.90
11083;DHT22;5595;50.186;8.468;2022-11-15T02:29:48;10.20;99.90
11083;DHT22;5595;50.186;8.468;2022-11-15T02:32:21;10.20;99.90
11083;DHT22;5595;50.186;8.468;2022-11-15T02:34:58;10.20;99.90
11083;DHT22;5595;50.186;8.468;2022-11-15T02:37:33;10.20;99.90
11083;DHT22;5595;50.186;8.468;2022-11-15T02:40:07;10.20;99.90
11083;DHT22;5595;50.186;8.468;2022-11-15T02:42:41;10.20;99.90
11083;DHT22;5595;50.186;8.468;2022-11-15T02:45:30;10.20;99.90
11083;DHT22;5595;50.186;8.468;2022-11-15T02:47:59;10.20;99.90
11083;DHT22;5595;50.186;8.468;2022-11-15T02:50:29;10.20;99.90
11083;DHT22;5595;50.186;8.468;2022-11-15T02:52:58;10.20;99.90
11083;DHT22;5595;50.186;8.468;2022-11-15T02:55:27;10.20;99.90
11083;DHT22;5595;50.186;8.468;2022-11-15T02:58:06;10.20;99.90
11083;DHT22;5595;50.186;8.468;2022-11-15T03:00:42;10.20;99.90
11083;DHT22;5595;50.186;8.468;2022-11-15T03:06:16;10.20;99.90
11083;DHT22;5595;50.186;8.468;2022-11-15T03:08:54;10.20;99.90
11083;DHT22;5595;50.186;8.468;2022-11-15T03:11:23;10.20;99.90
11083;DHT22;5595;50.186;8.468;2022-11-15T03:13:56;10.20;99.90
11083;DHT22;5595;50.186;8.468;2022-11-15T03:16:27;10.10;99.90
11083;DHT22;5595;50.186;8.468;2022-11-15T03:19:02;10.10;99.90
11083;DHT22;5595;50.186;8.468;2022-11-15T03:21:32;10.10;99.90
11083;DHT22;5595;50.186;8.468;2022-11-15T03:24:04;10.10;99.90
11083;DHT22;5595;50.186;8.468;2022-11-15T03:26:33;10.10;99.90
11083;DHT22;5595;50.186;8.468;2022-11-15T03:29:07;10.10;99.90
11083;DHT22;5595;50.186;8.468;2022-11-15T03:31:39;10.10;99.90
11083;DHT22;5595;50.186;8.468;2022-11-15T03:34:22;10.10;99.90
11083;DHT22;5595;50.186;8.468;2022-11-15T03:36:52;10.10;99.90
11083;DHT22;5595;50.186;8.468;2022-11-15T03:39:20;10.20;99.90
11083;DHT22;5595;50.186;8.468;2022-11-15T03:41:52;10.20;99.90
11083;DHT22;5595;50.186;8.468;2022-11-15T03:44:34;10.20;99.90
11083;DHT22;5595;50.186;8.468;2022-11-15T03:47:06;10.30;99.90
11083;DHT22;5595;50.186;8.468;2022-11-15T03:49:39;10.30;99.90
11083;DHT22;5595;50.186;8.468;2022-11-15T03:52:10;10.30;99.90
11083;DHT22;5595;50.186;8.468;2022-11-15T03:54:46;10.30;99.90
11083;DHT22;5595;50.186;8.468;2022-11-15T03:57:14;10.30;99.90
11083;DHT22;5595;50.186;8.468;2022-11-15T03:59:40;10.40;99.90
11083;DHT22;5595;50.186;8.468;2022-11-15T04:02:07;10.40;99.90
11083;DHT22;5595;50.186;8.468;2022-11-15T04:04:36;10.40;99.90
11083;DHT22;5595;50.186;8.468;2022-11-15T04:07:02;10.40;99.90
11083;DHT22;5595;50.186;8.468;2022-11-15T04:09:29;10.40;99.90
11083;DHT22;5595;50.186;8.468;2022-11-15T04:11:59;10.40;99.90
11083;DHT22;5595;50.186;8.468;2022-11-15T04:14:25;10.40;99.90
11083;DHT22;5595;50.186;8.468;2022-11-15T04:16:52;10.40;99.90
11083;DHT22;5595;50.186;8.468;2022-11-15T04:19:19;10.40;99.90
11083;DHT22;5595;50.186;8.468;2022-11-15T04:22:07;10.50;99.90
11083;DHT22;5595;50.186;8.468;2022-11-15T04:24:52;10.40;99.90
11083;DHT22;5595;50.186;8.468;2022-11-15T04:27:19;10.40;99.90
11083;DHT22;5595;50.186;8.468;2022-11-15T04:29:46;10.40;99.90
11083;DHT22;5595;50.186;8.468;2022-11-15T04:32:12;10.40;99.90
11083;DHT22;5595;50.186;8.468;2022-11-15T04:34:39;10.40;99.90
11083;DHT22;5595;50.186;8.468;2022-11-15T04:37:08;10.40;99.90
11083;DHT22;5595;50.186;8.468;2022-11-15T04:39:42;10.40;99.90
11083;DHT22;5595;50.186;8.468;2022-11-15T04:42:09;10.40;99.90
11083;DHT22;5595;50.186;8.468;2022-11-15T04:44:37;10.50;99.90
11083;DHT22;5595;50.186;8.468;2022-11-15T04:47:04;10.40;99.90
11083;DHT22;5595;50.186;8.468;2022-11-15T04:49:31;10.40;99.90
11083;DHT22;5595;50.186;8.468;2022-11-15T04:51:58;10.40;99.90
11083;DHT22;5595;50.186;8.468;2022-11-15T04:54:27;10.40;99.90
11083;DHT22;5595;50.186;8.468;2022-11-15T04:56:54;10.30;99.90
11083;DHT22;5595;50.186;8.468;2022-11-15T04:59:20;10.30;99.90
11083;DHT22;5595;50.186;8.468;2022-11-15T05:01:47;10.30;99.90
11083;DHT22;5595;50.186;8.468;2022-11-15T05:04:14;10.30;99.90
11083;DHT22;5595;50.186;8.468;2022-11-15T05:06:47;10.30;99.90
11083;DHT22;5595;50.186;8.468;2022-11-15T05:09:16;10.30;99.90
11083;DHT22;5595;50.186;8.468;2022-11-15T05:11:45;10.30;99.90
11083;DHT22;5595;50.186;8.468;2022-11-15T05:14:13;10.30;99.90
11083;DHT22;5595;50.186;8.468;2022-11-15T05:16:40;10.30;99.90
11083;DHT22;5595;50.186;8.468;2022-11-15T05:19:07;10.30;99.90
11083;DHT22;5595;50.186;8.468;2022-11-15T05:21:34;10.30;99.90
11083;DHT22;5595;50.186;8.468;2022-11-15T05:24:02;10.30;99.90
11083;DHT22;5595;50.186;8.468;2022-11-15T05:26:29;10.30;99.90
11083;DHT22;5595;50.186;8.468;2022-11-15T05:28:58;10.40;99.90
11083;DHT22;5595;50.186;8.468;2022-11-15T05:31:26;10.40;99.90
11083;DHT22;5595;50.186;8.468;2022-11-15T05:33:54;10.40;99.90
11083;DHT22;5595;50.186;8.468;2022-11-15T05:36:27;10.40;99.90
11083;DHT22;5595;50.186;8.468;2022-11-15T05:38:56;10.40;99.90
11083;DHT22;5595;50.186;8.468;2022-11-15T05:41:29;10.40;99.90
11083;DHT22;5595;50.186;8.468;2022-11-15T05:43:58;10.40;99.90
11083;DHT22;5595;50.186;8.468;2022-11-15T05:46:26;10.40;99.90
11083;DHT22;5595;50.186;8.468;2022-11-15T05:48:53;10.40;99.90
11083;DHT22;5595;50.186;8.468;2022-11-15T05:51:23;10.40;99.90
11083;DHT22;5595;50.186;8.468;2022-11-15T05:53:51;10.40;99.90
11083;DHT22;5595;50.186;8.468;2022-11-15T05:56:19;10.40;99.90
11083;DHT22;5595;50.186;8.468;2022-11-15T05:58:46;10.40;99.90
11083;DHT22;5595;50.186;8.468;2022-11-15T06:01:14;10.40;99.90
11083;DHT22;5595;50.186;8.468;2022-11-15T06:03:41;10.40;99.90
11083;DHT22;5595;50.186;8.468;2022-11-15T06:06:07;10.50;99.90
11083;DHT22;5595;50.186;8.468;2022-11-15T06:08:34;10.50;99.90
11083;DHT22;5595;50.186;8.468;2022-11-15T06:11:05;10.50;99.90
11083;DHT22;5595;50.186;8.468;2022-11-15T06:13:32;10.50;99.90
11083;DHT22;5595;50.186;8.468;2022-11-15T06:15:59;10.40;99.90
11083;DHT22;5595;50.186;8.468;2022-11-15T06:18:28;10.40;99.90
11083;DHT22;5595;50.186;8.468;2022-11-15T06:20:59;10.40;99.90
11083;DHT22;5595;50.186;8.468;2022-11-15T06:23:26;10.50;99.90
11083;DHT22;5595;50.186;8.468;2022-11-15T06:25:53;10.50;99.90
11083;DHT22;5595;50.186;8.468;2022-11-15T06:28:20;10.40;99.90
11083;DHT22;5595;50.186;8.468;2022-11-15T06:30:47;10.50;99.90
11083;DHT22;5595;50.186;8.468;2022-11-15T06:33:14;10.40;99.90
11083;DHT22;5595;50.186;8.468;2022-11-15T06:35:42;10.40;99.90
11083;DHT22;5595;50.186;8.468;2022-11-15T06:38:10;10.40;99.90
11083;DHT22;5595;50.186;8.468;2022-11-15T06:40:38;10.40;99.90
11083;DHT22;5595;50.186;8.468;2022-11-15T06:43:06;10.40;99.90
11083;DHT22;5595;50.186;8.468;2022-11-15T06:45:34;10.40;99.90
11083;DHT22;5595;50.186;8.468;2022-11-15T06:48:01;10.40;99.90
11083;DHT22;5595;50.186;8.468;2022-11-15T06:50:28;10.40;99.90
11083;DHT22;5595;50.186;8.468;2022-11-15T06:53:00;10.40;99.90
11083;DHT22;5595;50.186;8.468;2022-11-15T06:55:27;10.40;99.90
11083;DHT22;5595;50.186;8.468;2022-11-15T06:57:57;10.40;99.90
11083;DHT22;5595;50.186;8.468;2022-11-15T07:00:24;10.30;99.90
11083;DHT22;5595;50.186;8.468;2022-11-15T07:02:50;10.30;99.90
11083;DHT22;5595;50.186;8.468;2022-11-15T07:05:18;10.30;99.90
11083;DHT22;5595;50.186;8.468;2022-11-15T07:07:51;10.30;99.90
11083;DHT22;5595;50.186;8.468;2022-11-15T07:10:20;10.40;99.90
11083;DHT22;5595;50.186;8.468;2022-11-15T07:12:49;10.40;99.90
11083;DHT22;5595;50.186;8.468;2022-11-15T07:15:17;10.40;99.90
11083;DHT22;5595;50.186;8.468;2022-11-15T07:17:44;10.40;99.90
11083;DHT22;5595;50.186;8.468;2022-11-15T07:20:11;10.40;99.90
11083;DHT22;5595;50.186;8.468;2022-11-15T07:22:39;10.50;99.90
11083;DHT22;5595;50.186;8.468;2022-11-15T07:25:07;10.50;99.90
11083;DHT22;5595;50.186;8.468;2022-11-15T07:27:35;10.50;99.90
11083;DHT22;5595;50.186;8.468;2022-11-15T07:30:03;10.60;99.90
11083;DHT22;5595;50.186;8.468;2022-11-15T07:32:30;10.60;99.90
11083;DHT22;5595;50.186;8.468;2022-11-15T07:34:57;10.60;99.90
11083;DHT22;5595;50.186;8.468;2022-11-15T07:37:24;10.70;99.90
11083;DHT22;5595;50.186;8.468;2022-11-15T07:39:50;10.70;99.90
11083;DHT22;5595;50.186;8.468;2022-11-15T07:42:17;10.70;99.90
11083;DHT22;5595;50.186;8.468;2022-11-15T07:45:14;10.80;99.90
11083;DHT22;5595;50.186;8.468;2022-11-15T07:47:45;10.80;99.90
11083;DHT22;5595;50.186;8.468;2022-11-15T07:50:13;10.90;99.90
11083;DHT22;5595;50.186;8.468;2022-11-15T07:52:40;11.00;99.90
11083;DHT22;5595;50.186;8.468;2022-11-15T07:55:07;11.00;99.90
11083;DHT22;5595;50.186;8.468;2022-11-15T07:57:35;11.10;99.90
11083;DHT22;5595;50.186;8.468;2022-11-15T08:00:02;11.10;99.90
11083;DHT22;5595;50.186;8.468;2022-11-15T08:02:34;11.20;99.90
11083;DHT22;5595;50.186;8.468;2022-11-15T08:05:01;11.20;99.90
11083;DHT22;5595;50.186;8.468;2022-11-15T08:07:29;11.30;99.90
11083;DHT22;5595;50.186;8.468;2022-11-15T08:09:56;11.30;99.90
11083;DHT22;5595;50.186;8.468;2022-11-15T08:12:23;11.30;99.90
11083;DHT22;5595;50.186;8.468;2022-11-15T08:14:50;11.30;99.90
11083;DHT22;5595;50.186;8.468;2022-11-15T08:17:17;11.40;99.90
11083;DHT22;5595;50.186;8.468;2022-11-15T08:19:45;11.50;99.90
11083;DHT22;5595;50.186;8.468;2022-11-15T08:22:12;11.50;99.90
11083;DHT22;5595;50.186;8.468;2022-11-15T08:24:39;11.60;99.90
11083;DHT22;5595;50.186;8.468;2022-11-15T08:27:06;11.60;99.90
11083;DHT22;5595;50.186;8.468;2022-11-15T08:29:41;11.70;99.90
11083;DHT22;5595;50.186;8.468;2022-11-15T08:32:08;11.70;99.90
11083;DHT22;5595;50.186;8.468;2022-11-15T08:34:35;11.80;99.90
11083;DHT22;5595;50.186;8.468;2022-11-15T08:37:03;11.90;99.90
11083;DHT22;5595;50.186;8.468;2022-11-15T08:39:30;11.90;99.90
11083;DHT22;5595;50.186;8.468;2022-11-15T08:41:57;11.90;99.90
11083;DHT22;5595;50.186;8.468;2022-11-15T08:44:24;12.00;99.90
11083;DHT22;5595;50.186;8.468;2022-11-15T08:46:51;11.90;99.90
11083;DHT22;5595;50.186;8.468;2022-11-15T08:49:17;12.00;99.90
11083;DHT22;5595;50.186;8.468;2022-11-15T08:51:45;12.00;99.90
11083;DHT22;5595;50.186;8.468;2022-11-15T08:54:13;11.90;99.90
11083;DHT22;5595;50.186;8.468;2022-11-15T08:56:40;11.90;99.90
11083;DHT22;5595;50.186;8.468;2022-11-15T08:59:07;11.90;99.90
11083;DHT22;5595;50.186;8.468;2022-11-15T09:01:34;11.90;99.90
11083;DHT22;5595;50.186;8.468;2022-11-15T09:04:01;11.90;99.90
11083;DHT22;5595;50.186;8.468;2022-11-15T09:06:29;12.00;99.90
11083;DHT22;5595;50.186;8.468;2022-11-15T09:08:56;12.00;99.90
11083;DHT22;5595;50.186;8.468;2022-11-15T09:11:24;12.00;99.90
11083;DHT22;5595;50.186;8.468;2022-11-15T09:13:52;12.00;99.90
11083;DHT22;5595;50.186;8.468;2022-11-15T09:16:19;12.00;99.90
11083;DHT22;5595;50.186;8.468;2022-11-15T09:18:46;12.10;99.90
11083;DHT22;5595;50.186;8.468;2022-11-15T09:21:13;12.20;99.90
11083;DHT22;5595;50.186;8.468;2022-11-15T09:23:40;12.20;99.90
11083;DHT22;5595;50.186;8.468;2022-11-15T09:26:07;12.20;99.90
11083;DHT22;5595;50.186;8.468;2022-11-15T09:28:36;12.20;99.90
11083;DHT22;5595;50.186;8.468;2022-11-15T09:31:05;12.20;99.90
11083;DHT22;5595;50.186;8.468;2022-11-15T09:33:32;12.30;99.90
11083;DHT22;5595;50.186;8.468;2022-11-15T09:36:03;12.30;99.90
11083;DHT22;5595;50.186;8.468;2022-11-15T09:38:30;12.40;99.90
11083;DHT22;5595;50.186;8.468;2022-11-15T09:41:15;12.60;99.90
11083;DHT22;5595;50.186;8.468;2022-11-15T09:43:53;12.80;99.90
11083;DHT22;5595;50.186;8.468;2022-11-15T09:46:28;12.80;99.90
11083;DHT22;5595;50.186;8.468;2022-11-15T09:48:59;13.70;99.90
11083;DHT22;5595;50.186;8.468;2022-11-15T09:51:30;12.90;99.90
11083;DHT22;5595;50.186;8.468;2022-11-15T09:54:09;12.90;99.90
11083;DHT22;5595;50.186;8.468;2022-11-15T09:56:39;12.90;99.90
11083;DHT22;5595;50.186;8.468;2022-11-15T09:59:23;12.90;99.90
11083;DHT22;5595;50.186;8.468;2022-11-15T10:01:58;12.90;99.90
11083;DHT22;5595;50.186;8.468;2022-11-15T10:04:27;12.90;99.90
11083;DHT22;5595;50.186;8.468;2022-11-15T10:07:00;13.00;99.90
11083;DHT22;5595;50.186;8.468;2022-11-15T10:09:33;13.10;99.90
11083;DHT22;5595;50.186;8.468;2022-11-15T10:12:02;13.20;99.90
11083;DHT22;5595;50.186;8.468;2022-11-15T10:14:31;13.40;99.90
11083;DHT22;5595;50.186;8.468;2022-11-15T10:20:17;13.60;99.90
11083;DHT22;5595;50.186;8.468;2022-11-15T10:22:47;13.60;99.90
11083;DHT22;5595;50.186;8.468;2022-11-15T10:25:22;13.60;99.90
11083;DHT22;5595;50.186;8.468;2022-11-15T10:27:58;13.50;99.90
11083;DHT22;5595;50.186;8.468;2022-11-15T10:30:37;13.50;99.90
11083;DHT22;5595;50.186;8.468;2022-11-15T10:33:17;13.50;99.90
11083;DHT22;5595;50.186;8.468;2022-11-15T10:35:45;13.50;99.90
11083;DHT22;5595;50.186;8.468;2022-11-15T10:38:12;13.50;99.90
11083;DHT22;5595;50.186;8.468;2022-11-15T10:40:40;13.50;99.90
11083;DHT22;5595;50.186;8.468;2022-11-15T10:43:15;13.40;99.90
11083;DHT22;5595;50.186;8.468;2022-11-15T10:45:44;13.30;99.90
11083;DHT22;5595;50.186;8.468;2022-11-15T10:48:24;13.20;99.90
11083;DHT22;5595;50.186;8.468;2022-11-15T10:50:52;13.20;99.90
11083;DHT22;5595;50.186;8.468;2022-11-15T10:53:23;13.10;99.90
11083;DHT22;5595;50.186;8.468;2022-11-15T10:55:52;13.00;99.90
11083;DHT22;5595;50.186;8.468;2022-11-15T10:58:25;12.90;99.90
11083;DHT22;5595;50.186;8.468;2022-11-15T11:01:08;12.90;99.90
11083;DHT22;5595;50.186;8.468;2022-11-15T11:03:37;12.90;99.90
11083;DHT22;5595;50.186;8.468;2022-11-15T11:06:07;12.80;99.90
11083;DHT22;5595;50.186;8.468;2022-11-15T11:08:34;12.80;99.90
11083;DHT22;5595;50.186;8.468;2022-11-15T11:11:02;12.80;99.90
11083;DHT22;5595;50.186;8.468;2022-11-15T11:13:30;12.80;99.90
11083;DHT22;5595;50.186;8.468;2022-11-15T11:16:15;12.80;99.90
11083;DHT22;5595;50.186;8.468;2022-11-15T11:18:51;12.80;99.90
11083;DHT22;5595;50.186;8.468;2022-11-15T11:21:25;12.80;99.90
11083;DHT22;5595;50.186;8.468;2022-11-15T11:23:57;12.90;99.90
11083;DHT22;5595;50.186;8.468;2022-11-15T11:26:40;13.10;99.90
11083;DHT22;5595;50.186;8.468;2022-11-15T11:29:20;13.30;99.90
11083;DHT22;5595;50.186;8.468;2022-11-15T11:31:59;13.40;99.90
11083;DHT22;5595;50.186;8.468;2022-11-15T11:34:41;13.30;99.90
11083;DHT22;5595;50.186;8.468;2022-11-15T11:37:17;13.20;99.90
11083;DHT22;5595;50.186;8.468;2022-11-15T11:39:52;13.30;99.90
11083;DHT22;5595;50.186;8.468;2022-11-15T11:42:30;13.20;99.90
11083;DHT22;5595;50.186;8.468;2022-11-15T11:45:05;13.20;99.90
11083;DHT22;5595;50.186;8.468;2022-11-15T11:47:43;13.20;99.90
11083;DHT22;5595;50.186;8.468;2022-11-15T11:50:17;13.20;99.90
11083;DHT22;5595;50.186;8.468;2022-11-15T11:52:54;13.20;99.90
11083;DHT22;5595;50.186;8.468;2022-11-15T11:55:26;13.20;99.90
11083;DHT22;5595;50.186;8.468;2022-11-15T11:58:04;13.30;99.90
11083;DHT22;5595;50.186;8.468;2022-11-15T12:00:35;13.30;99.90
11083;DHT22;5595;50.186;8.468;2022-11-15T12:03:10;13.40;99.90
11083;DHT22;5595;50.186;8.468;2022-11-15T12:05:40;13.40;99.90
11083;DHT22;5595;50.186;8.468;2022-11-15T12:08:28;13.40;99.90
11083;DHT22;5595;50.186;8.468;2022-11-15T12:11:03;13.40;99.90
11083;DHT22;5595;50.186;8.468;2022-11-15T12:13:31;13.40;99.90
11083;DHT22;5595;50.186;8.468;2022-11-15T12:16:07;13.50;99.90
11083;DHT22;5595;50.186;8.468;2022-11-15T12:18:37;13.70;99.90
11083;DHT22;5595;50.186;8.468;2022-11-15T12:21:07;13.70;99.90
11083;DHT22;5595;50.186;8.468;2022-11-15T12:23:43;13.80;99.90
11083;DHT22;5595;50.186;8.468;2022-11-15T12:26:14;13.90;99.90
11083;DHT22;5595;50.186;8.468;2022-11-15T12:28:46;14.00;99.90
11083;DHT22;5595;50.186;8.468;2022-11-15T12:31:18;13.90;99.90
11083;DHT22;5595;50.186;8.468;2022-11-15T12:33:49;13.90;99.90
11083;DHT22;5595;50.186;8.468;2022-11-15T12:36:34;13.80;99.90
11083;DHT22;5595;50.186;8.468;2022-11-15T12:39:03;13.70;99.90
11083;DHT22;5595;50.186;8.468;2022-11-15T12:41:30;13.60;99.90
11083;DHT22;5595;50.186;8.468;2022-11-15T12:43:58;13.60;99.90
11083;DHT22;5595;50.186;8.468;2022-11-15T12:46:59;13.50;99.90
11083;DHT22;5595;50.186;8.468;2022-11-15T12:49:45;13.50;99.90
11083;DHT22;5595;50.186;8.468;2022-11-15T12:52:20;13.60;99.90
11083;DHT22;5595;50.186;8.468;2022-11-15T12:54:55;13.60;99.90
11083;DHT22;5595;50.186;8.468;2022-11-15T12:57:42;13.60;99.90
11083;DHT22;5595;50.186;8.468;2022-11-15T13:03:26;13.60;99.90
11083;DHT22;5595;50.186;8.468;2022-11-15T13:06:07;13.60;99.90
11083;DHT22;5595;50.186;8.468;2022-11-15T13:08:39;13.50;99.90
11083;DHT22;5595;50.186;8.468;2022-11-15T13:14:45;13.30;99.90
11083;DHT22;5595;50.186;8.468;2022-11-15T13:17:30;13.20;99.90
11083;DHT22;5595;50.186;8.468;2022-11-15T13:20:02;13.10;99.90
11083;DHT22;5595;50.186;8.468;2022-11-15T13:22:40;13.10;99.90
11083;DHT22;5595;50.186;8.468;2022-11-15T13:25:42;13.10;99.90
11083;DHT22;5595;50.186;8.468;2022-11-15T13:28:21;13.10;99.90
11083;DHT22;5595;50.186;8.468;2022-11-15T13:30:50;13.00;99.90
11083;DHT22;5595;50.186;8.468;2022-11-15T13:33:20;13.00;99.90
11083;DHT22;5595;50.186;8.468;2022-11-15T13:35:52;13.10;99.90
11083;DHT22;5595;50.186;8.468;2022-11-15T13:38:28;13.10;99.90
11083;DHT22;5595;50.186;8.468;2022-11-15T13:40:59;13.00;99.90
11083;DHT22;5595;50.186;8.468;2022-11-15T13:43:31;13.00;99.90
11083;DHT22;5595;50.186;8.468;2022-11-15T13:46:12;13.10;99.90
11083;DHT22;5595;50.186;8.468;2022-11-15T13:48:39;13.10;99.90
11083;DHT22;5595;50.186;8.468;2022-11-15T13:51:15;13.10;99.90
11083;DHT22;5595;50.186;8.468;2022-11-15T13:53:46;13.20;99.90
11083;DHT22;5595;50.186;8.468;2022-11-15T13:56:18;13.20;99.90
11083;DHT22;5595;50.186;8.468;2022-11-15T13:58:46;13.20;99.90
11083;DHT22;5595;50.186;8.468;2022-11-15T14:01:16;13.20;99.90
11083;DHT22;5595;50.186;8.468;2022-11-15T14:03:52;13.20;99.90
11083;DHT22;5595;50.186;8.468;2022-11-15T14:06:24;13.20;99.90
11083;DHT22;5595;50.186;8.468;2022-11-15T14:09:30;13.20;99.90
11083;DHT22;5595;50.186;8.468;2022-11-15T14:11:59;13.20;99.90
11083;DHT22;5595;50.186;8.468;2022-11-15T14:14:28;13.10;99.90
11083;DHT22;5595;50.186;8.468;2022-11-15T14:16:56;13.10;99.90
11083;DHT22;5595;50.186;8.468;2022-11-15T14:19:39;13.10;99.90
11083;DHT22;5595;50.186;8.468;2022-11-15T14:22:16;13.00;99.90
11083;DHT22;5595;50.186;8.468;2022-11-15T14:24:46;13.00;99.90
11083;DHT22;5595;50.186;8.468;2022-11-15T14:27:22;12.90;99.90
11083;DHT22;5595;50.186;8.468;2022-11-15T14:29:52;12.90;99.90
11083;DHT22;5595;50.186;8.468;2022-11-15T14:32:21;12.90;99.90
11083;DHT22;5595;50.186;8.468;2022-11-15T14:34:48;12.80;99.90
11083;DHT22;5595;50.186;8.468;2022-11-15T14:37:21;12.80;99.90
11083;DHT22;5595;50.186;8.468;2022-11-15T14:39:50;12.70;99.90
11083;DHT22;5595;50.186;8.468;2022-11-15T14:42:19;12.70;99.90
11083;DHT22;5595;50.186;8.468;2022-11-15T14:44:46;12.70;99.90
11083;DHT22;5595;50.186;8.468;2022-11-15T14:47:13;12.60;99.90
11083;DHT22;5595;50.186;8.468;2022-11-15T14:49:40;12.50;99.90
11083;DHT22;5595;50.186;8.468;2022-11-15T14:52:24;12.40;99.90
11083;DHT22;5595;50.186;8.468;2022-11-15T14:54:53;12.50;99.90
11083;DHT22;5595;50.186;8.468;2022-11-15T14:57:20;12.40;99.90
11083;DHT22;5595;50.186;8.468;2022-11-15T14:59:46;12.40;99.90
11083;DHT22;5595;50.186;8.468;2022-11-15T15:02:17;12.40;99.90
11083;DHT22;5595;50.186;8.468;2022-11-15T15:04:44;12.30;99.90
11083;DHT22;5595;50.186;8.468;2022-11-15T15:07:11;12.40;99.90
11083;DHT22;5595;50.186;8.468;2022-11-15T15:09:38;12.30;99.90
11083;DHT22;5595;50.186;8.468;2022-11-15T15:12:14;12.30;99.90
11083;DHT22;5595;50.186;8.468;2022-11-15T15:14:42;12.20;99.90
11083;DHT22;5595;50.186;8.468;2022-11-15T15:17:08;12.20;99.90
11083;DHT22;5595;50.186;8.468;2022-11-15T15:19:35;12.10;99.90
11083;DHT22;5595;50.186;8.468;2022-11-15T15:22:02;12.10;99.90
11083;DHT22;5595;50.186;8.468;2022-11-15T15:24:30;12.00;99.90
11083;DHT22;5595;50.186;8.468;2022-11-15T15:26:57;12.00;99.90
11083;DHT22;5595;50.186;8.468;2022-11-15T15:29:25;12.00;99.90
11083;DHT22;5595;50.186;8.468;2022-11-15T15:31:52;12.00;99.90
11083;DHT22;5595;50.186;8.468;2022-11-15T15:34:19;12.00;99.90
11083;DHT22;5595;50.186;8.468;2022-11-15T15:36:46;12.00;99.90
11083;DHT22;5595;50.186;8.468;2022-11-15T15:39:13;12.00;99.90
11083;DHT22;5595;50.186;8.468;2022-11-15T15:41:40;11.90;99.90
11083;DHT22;5595;50.186;8.468;2022-11-15T15:44:06;11.90;99.90
11083;DHT22;5595;50.186;8.468;2022-11-15T15:46:35;11.80;99.90
11083;DHT22;5595;50.186;8.468;2022-11-15T15:49:03;11.80;99.90
11083;DHT22;5595;50.186;8.468;2022-11-15T15:51:30;11.80;99.90
11083;DHT22;5595;50.186;8.468;2022-11-15T15:53:57;11.70;99.90
11083;DHT22;5595;50.186;8.468;2022-11-15T15:56:24;11.70;99.90
11083;DHT22;5595;50.186;8.468;2022-11-15T15:58:51;11.70;99.90
11083;DHT22;5595;50.186;8.468;2022-11-15T16:01:19;11.70;99.90
11083;DHT22;5595;50.186;8.468;2022-11-15T16:03:48;11.70;99.90
11083;DHT22;5595;50.186;8.468;2022-11-15T16:06:35;11.70;99.90
11083;DHT22;5595;50.186;8.468;2022-11-15T16:09:03;11.70;99.90
11083;DHT22;5595;50.186;8.468;2022-11-15T16:11:30;11.60;99.90
11083;DHT22;5595;50.186;8.468;2022-11-15T16:13:57;11.60;99.90
11083;DHT22;5595;50.186;8.468;2022-11-15T16:16:24;11.60;99.90
11083;DHT22;5595;50.186;8.468;2022-11-15T16:18:52;11.60;99.90
11083;DHT22;5595;50.186;8.468;2022-11-15T16:21:19;11.50;99.90
11083;DHT22;5595;50.186;8.468;2022-11-15T16:23:46;11.50;99.90
11083;DHT22;5595;50.186;8.468;2022-11-15T16:26:20;11.40;99.90